Time;durP1;ratioP1;P1;durP2;ratioP2;P2;SDS_P1;SDS_P2;PMS_P1;PMS_P2;Temp;Humidity;BMP_temperature;BMP_pressure;BME280_temperature;BME280_humidity;BME280_pressure;Samples;Min_cycle;Max_cycle;Signal;HPM_P1;HPM_P2
2022/03/14 00:01:16;;;;;;;;;;;;;;;-0.83;65.34;101236.22;5054431;28;859;-59
2022/03/14 00:03:47;;;;;;;;;;;;;;;-0.77;65.15;101234.22;5054492;28;855;-59
2022/03/14 00:06:14;;;;;;;;;;;;;;;-0.67;64.75;101239.53;5054449;28;791;-59
2022/03/14 00:08:44;;;;;;;;;;;;;;;-0.70;64.64;101232.00;5054448;28;909;-59
2022/03/14 00:11:15;;;;;;;;;;;;;;;-0.65;64.23;101239.25;5054260;28;894;-59
2022/03/14 00:13:43;;;;;;;;;;;;;;;-0.78;64.12;101237.25;5054796;28;851;-59
2022/03/14 00:16:10;;;;;;;;;;;;;;;-1.20;65.49;101241.53;5054274;28;1894;-59
2022/03/14 00:18:42;;;;;;;;;;;;;;;-1.61;66.88;101241.94;5054917;28;977;-59
2022/03/14 00:21:10;;;;;;;;;;;;;;;-1.95;68.73;101240.88;5054160;28;937;-59
2022/03/14 00:23:37;;;;;;;;;;;;;;;-2.14;69.23;101250.75;5054100;28;917;-59
2022/03/14 00:26:06;;;;;;;;;;;;;;;-2.42;71.07;101247.69;5054052;28;953;-59
2022/03/14 00:28:32;;;;;;;;;;;;;;;-2.62;71.36;101250.53;5054008;28;831;-59
2022/03/14 00:30:58;;;;;;;;;;;;;;;-2.74;72.05;101248.94;5054034;28;807;-59
2022/03/14 00:33:25;;;;;;;;;;;;;;;-2.89;72.26;101251.72;5053684;28;1297;-59
2022/03/14 00:35:51;;;;;;;;;;;;;;;-2.99;72.14;101251.75;5053795;28;1973;-59
2022/03/14 00:38:18;;;;;;;;;;;;;;;-3.08;72.81;101249.59;5053849;28;968;-59
2022/03/14 00:40:46;;;;;;;;;;;;;;;-3.02;72.72;101246.91;5053753;28;859;-58
2022/03/14 00:43:12;;;;;;;;;;;;;;;-3.03;72.70;101256.06;5053751;28;883;-58
2022/03/14 00:45:39;;;;;;;;;;;;;;;-3.05;73.22;101252.84;5053566;28;914;-60
2022/03/14 00:48:05;;;;;;;;;;;;;;;-3.06;74.09;101254.75;5052412;28;1157;-60
2022/03/14 00:50:31;;;;;;;;;;;;;;;-3.01;74.01;101260.13;5053645;28;874;-59
2022/03/14 00:52:58;;;;;;;;;;;;;;;-2.90;73.35;101256.31;5053605;28;854;-59
2022/03/14 00:55:24;;;;;;;;;;;;;;;-2.71;73.47;101256.50;5053498;28;870;-59
2022/03/14 00:57:50;;;;;;;;;;;;;;;-2.36;72.25;101259.31;5053392;28;1890;-59
2022/03/14 01:00:16;;;;;;;;;;;;;;;-2.23;72.17;101257.88;5053571;28;890;-59
2022/03/14 01:02:43;;;;;;;;;;;;;;;-1.88;70.61;101259.50;5053587;28;859;-59
2022/03/14 01:05:10;;;;;;;;;;;;;;;-1.61;68.98;101264.44;5053783;28;871;-59
2022/03/14 01:07:36;;;;;;;;;;;;;;;-1.40;67.62;101254.22;5069227;28;808;-60
2022/03/14 01:10:04;;;;;;;;;;;;;;;-1.42;67.95;101266.47;5053610;28;847;-59
2022/03/14 01:12:31;;;;;;;;;;;;;;;-1.61;68.08;101269.06;5053414;28;923;-59
2022/03/14 01:14:57;;;;;;;;;;;;;;;-1.77;68.46;101271.09;5053351;28;981;-59
2022/03/14 01:17:24;;;;;;;;;;;;;;;-1.91;68.52;101268.22;5053687;28;1945;-59
2022/03/14 01:19:51;;;;;;;;;;;;;;;-1.89;68.85;101276.88;5053319;28;795;-59
2022/03/14 01:22:17;;;;;;;;;;;;;;;-1.82;68.76;101274.66;5053643;28;771;-59
2022/03/14 01:24:43;;;;;;;;;;;;;;;-1.66;67.58;101280.78;5052993;28;839;-59
2022/03/14 01:27:10;;;;;;;;;;;;;;;-1.54;67.10;101272.25;5052887;28;938;-59
2022/03/14 01:29:37;;;;;;;;;;;;;;;-1.48;66.91;101279.25;5052905;28;827;-59
2022/03/14 01:32:05;;;;;;;;;;;;;;;-1.46;66.39;101280.56;5052742;28;954;-59
2022/03/14 01:34:31;;;;;;;;;;;;;;;-1.44;66.50;101269.44;5052435;28;1222;-59
2022/03/14 01:36:58;;;;;;;;;;;;;;;-1.51;66.53;101277.91;5052664;28;1918;-59
2022/03/14 01:39:25;;;;;;;;;;;;;;;-1.50;66.53;101276.81;5052662;28;882;-59
2022/03/14 01:41:51;;;;;;;;;;;;;;;-1.42;66.38;101285.44;5052700;28;819;-59
2022/03/14 01:44:19;;;;;;;;;;;;;;;-1.34;66.10;101279.41;5052478;28;941;-59
2022/03/14 01:46:45;;;;;;;;;;;;;;;-1.26;65.67;101282.31;5052527;28;918;-59
2022/03/14 01:49:13;;;;;;;;;;;;;;;-1.13;65.40;101290.84;5052461;28;862;-59
2022/03/14 01:51:43;;;;;;;;;;;;;;;-1.05;65.52;101292.94;5052557;28;830;-60
2022/03/14 01:54:09;;;;;;;;;;;;;;;-0.99;65.36;101288.25;5052814;28;839;-59
2022/03/14 01:56:39;;;;;;;;;;;;;;;-0.89;64.94;101285.44;5052767;28;1878;-59
2022/03/14 01:59:05;;;;;;;;;;;;;;;-0.79;64.61;101298.06;5051833;28;915;-59
2022/03/14 02:01:32;;;;;;;;;;;;;;;-0.90;64.45;101270.22;5052443;28;831;-59
2022/03/14 02:04:00;;;;;;;;;;;;;;;-0.68;64.54;101299.59;5052702;28;819;-59
2022/03/14 02:06:30;;;;;;;;;;;;;;;-0.62;64.17;101304.66;5052109;28;968;-59
2022/03/14 02:08:57;;;;;;;;;;;;;;;-0.53;63.79;101301.31;5052415;28;874;-59
2022/03/14 02:11:23;;;;;;;;;;;;;;;-0.52;63.86;101298.28;5052143;28;806;-59
2022/03/14 02:13:50;;;;;;;;;;;;;;;-0.49;63.23;101311.31;5051885;28;914;-58
2022/03/14 02:16:17;;;;;;;;;;;;;;;-0.45;63.66;101308.78;5051796;28;1987;-59
2022/03/14 02:18:43;;;;;;;;;;;;;;;-0.44;63.30;101319.38;5051858;28;918;-59
2022/03/14 02:21:13;;;;;;;;;;;;;;;-0.43;63.56;101306.59;5051999;28;862;-58
2022/03/14 02:23:40;;;;;;;;;;;;;;;-0.42;63.38;101325.31;5052113;28;918;-59
2022/03/14 02:26:06;;;;;;;;;;;;;;;-0.42;63.33;101319.88;5051771;28;866;-59
2022/03/14 02:28:33;;;;;;;;;;;;;;;-0.42;63.28;101319.88;5067148;28;937;-59
2022/03/14 02:31:02;;;;;;;;;;;;;;;-0.45;63.15;101322.38;5052158;28;799;-59
2022/03/14 02:33:28;;;;;;;;;;;;;;;-0.43;63.54;101322.88;5051364;28;1390;-60
2022/03/14 02:35:55;;;;;;;;;;;;;;;-0.48;63.46;101329.19;5050384;28;1922;-58
2022/03/14 02:38:21;;;;;;;;;;;;;;;-0.50;63.38;101331.41;5050328;28;1223;-58
2022/03/14 02:40:48;;;;;;;;;;;;;;;-0.53;63.86;101326.56;5051570;28;866;-60
2022/03/14 02:43:22;;;;;;;;;;;;;;;-0.56;64.11;101334.47;5051423;28;859;-59
2022/03/14 02:45:49;;;;;;;;;;;;;;;-0.57;64.16;101336.38;5051554;28;913;-60
2022/03/14 02:48:14;;;;;;;;;;;;;;;-0.60;64.58;101341.56;5051401;28;934;-58
2022/03/14 02:50:42;;;;;;;;;;;;;;;-0.63;64.37;101335.63;5051507;28;855;-58
2022/03/14 02:53:08;;;;;;;;;;;;;;;-0.63;64.70;101337.53;5051421;28;902;-59
2022/03/14 02:55:37;;;;;;;;;;;;;;;-0.69;64.69;101341.41;5051683;28;889;-58
2022/03/14 02:58:04;;;;;;;;;;;;;;;-0.69;64.68;101346.84;5051382;28;1891;-59
2022/03/14 03:00:30;;;;;;;;;;;;;;;-0.72;64.46;101344.72;5051343;28;815;-59
2022/03/14 03:02:57;;;;;;;;;;;;;;;-0.75;64.66;101348.78;5051493;28;886;-60
2022/03/14 03:05:24;;;;;;;;;;;;;;;-0.77;64.87;101353.69;5051297;28;922;-60
2022/03/14 03:07:51;;;;;;;;;;;;;;;-0.79;64.96;101355.91;5051399;28;1005;-60
2022/03/14 03:10:20;;;;;;;;;;;;;;;-0.77;65.04;101356.41;5051398;28;957;-58
2022/03/14 03:12:47;;;;;;;;;;;;;;;-0.80;65.02;101350.78;5055349;28;957;-60
2022/03/14 03:15:17;;;;;;;;;;;;;;;-0.83;65.19;101357.59;5055675;28;922;-60
2022/03/14 03:17:44;;;;;;;;;;;;;;;-0.84;65.23;101358.66;5055497;28;1889;-59
2022/03/14 03:20:11;;;;;;;;;;;;;;;-0.88;65.44;101363.84;5055288;28;1092;-59
2022/03/14 03:22:39;;;;;;;;;;;;;;;-0.90;65.73;101360.63;5070673;28;922;-59
2022/03/14 03:25:06;;;;;;;;;;;;;;;-0.95;66.09;101366.09;5055202;28;917;-59
2022/03/14 03:27:33;;;;;;;;;;;;;;;-0.93;65.94;101366.63;5055457;28;826;-59
2022/03/14 03:29:59;;;;;;;;;;;;;;;-0.94;65.98;101365.03;5055231;28;798;-59
2022/03/14 03:32:26;;;;;;;;;;;;;;;-0.92;65.79;101368.25;5055176;28;909;-59
2022/03/14 03:34:52;;;;;;;;;;;;;;;-0.93;66.07;101387.53;5054863;28;1269;-59
2022/03/14 03:37:18;;;;;;;;;;;;;;;-0.95;66.18;101371.53;5054966;28;2261;-59
2022/03/14 03:39:45;;;;;;;;;;;;;;;-0.95;66.19;101371.53;5054899;28;914;-59
2022/03/14 03:42:11;;;;;;;;;;;;;;;-0.89;65.87;101375.03;5054761;28;1213;-59
2022/03/14 03:44:38;;;;;;;;;;;;;;;-0.91;66.08;101375.31;5055081;28;803;-59
2022/03/14 03:47:05;;;;;;;;;;;;;;;-0.90;66.19;101379.63;5054753;28;906;-60
2022/03/14 03:49:32;;;;;;;;;;;;;;;-0.91;66.36;101380.72;5054731;28;867;-59
2022/03/14 03:51:59;;;;;;;;;;;;;;;-0.89;66.36;101386.69;5054806;28;811;-59
2022/03/14 03:54:25;;;;;;;;;;;;;;;-0.80;65.91;101380.63;5054624;28;909;-59
2022/03/14 03:56:51;;;;;;;;;;;;;;;-0.78;66.25;101381.97;5054578;28;1886;-59
2022/03/14 03:59:19;;;;;;;;;;;;;;;-0.75;66.21;101394.94;5054561;28;866;-60
2022/03/14 04:01:46;;;;;;;;;;;;;;;-0.69;66.15;101387.56;5054485;28;901;-59
2022/03/14 04:04:12;;;;;;;;;;;;;;;-0.63;66.06;101392.66;5054435;28;919;-59
2022/03/14 04:06:41;;;;;;;;;;;;;;;-0.55;65.77;101401.28;5054446;28;841;-59
2022/03/14 04:09:09;;;;;;;;;;;;;;;-0.47;65.70;101393.31;5054368;28;966;-59
2022/03/14 04:11:36;;;;;;;;;;;;;;;-0.44;65.64;101398.16;5069522;28;925;-59
2022/03/14 04:14:03;;;;;;;;;;;;;;;-0.43;65.89;101401.66;5054501;28;846;-60
2022/03/14 04:16:28;;;;;;;;;;;;;;;-0.40;66.23;101405.75;5054171;28;1910;-59
2022/03/14 04:18:56;;;;;;;;;;;;;;;-0.44;66.34;101406.31;5069669;28;916;-59
2022/03/14 04:21:23;;;;;;;;;;;;;;;-0.40;66.58;101405.75;5053816;28;850;-59
2022/03/14 04:23:49;;;;;;;;;;;;;;;-0.39;66.66;101401.91;5054136;28;886;-60
2022/03/14 04:26:16;;;;;;;;;;;;;;;-0.39;67.01;101401.91;5054024;28;931;-59
2022/03/14 04:28:43;;;;;;;;;;;;;;;-0.37;67.15;101400.50;5054097;28;945;-59
2022/03/14 04:31:10;;;;;;;;;;;;;;;-0.33;67.08;101401.56;5053949;28;963;-59
2022/03/14 04:33:36;;;;;;;;;;;;;;;-0.33;67.11;101400.75;5053772;28;1240;-60
2022/03/14 04:36:04;;;;;;;;;;;;;;;-0.31;67.09;101401.28;5053897;28;1917;-59
2022/03/14 04:38:30;;;;;;;;;;;;;;;-0.29;67.43;101404.50;5053872;28;871;-59
2022/03/14 04:40:56;;;;;;;;;;;;;;;-0.33;67.85;101400.75;5053711;28;810;-59
2022/03/14 04:43:24;;;;;;;;;;;;;;;-0.35;68.09;101398.31;5053802;28;1105;-59
2022/03/14 04:45:50;;;;;;;;;;;;;;;-0.37;67.82;101408.66;5053658;28;887;-59
2022/03/14 04:48:17;;;;;;;;;;;;;;;-0.40;67.94;101408.47;5053602;28;946;-59
2022/03/14 04:50:45;;;;;;;;;;;;;;;-0.42;67.87;101408.75;5053581;28;918;-60
2022/03/14 04:53:11;;;;;;;;;;;;;;;-0.47;68.20;101422.34;5053550;28;902;-59
2022/03/14 04:55:37;;;;;;;;;;;;;;;-0.54;68.18;101424.63;5053477;28;954;-60
2022/03/14 04:58:03;;;;;;;;;;;;;;;-0.59;68.21;101427.41;5053472;28;1947;-59
2022/03/14 05:00:30;;;;;;;;;;;;;;;-0.60;68.06;101433.91;5053482;28;799;-59
2022/03/14 05:03:04;;;;;;;;;;;;;;;-0.59;68.17;101422.78;5053309;28;887;-59
2022/03/14 05:05:31;;;;;;;;;;;;;;;-0.58;68.10;101432.53;5053317;28;920;-60
2022/03/14 05:07:57;;;;;;;;;;;;;;;-0.56;67.90;101445.81;5053349;28;1238;-60
2022/03/14 05:10:24;;;;;;;;;;;;;;;-0.50;67.94;101447.41;5053078;28;946;-59
2022/03/14 05:12:51;;;;;;;;;;;;;;;-0.41;67.72;101453.81;5053472;28;937;-59
2022/03/14 05:15:17;;;;;;;;;;;;;;;-0.33;67.71;101458.63;5053334;28;803;-60
2022/03/14 05:17:44;;;;;;;;;;;;;;;-0.23;67.38;101460.44;5053285;28;1949;-59
2022/03/14 05:20:11;;;;;;;;;;;;;;;-0.14;67.23;101458.69;5053082;28;795;-60
2022/03/14 05:22:45;;;;;;;;;;;;;;;-0.07;66.83;101464.56;5053088;28;1194;-58
2022/03/14 05:25:11;;;;;;;;;;;;;;;0.02;66.50;101462.00;5053229;28;875;-60
2022/03/14 05:27:39;;;;;;;;;;;;;;;0.10;66.52;101468.72;5053211;28;913;-60
2022/03/14 05:30:10;;;;;;;;;;;;;;;0.16;66.58;101471.09;5053358;28;840;-59
2022/03/14 05:32:36;;;;;;;;;;;;;;;0.21;66.32;101464.78;5052765;28;858;-59
2022/03/14 05:35:03;;;;;;;;;;;;;;;0.29;66.34;101474.19;5052115;28;1213;-59
2022/03/14 05:37:30;;;;;;;;;;;;;;;0.33;65.98;101470.59;5052679;28;1961;-59
2022/03/14 05:39:56;;;;;;;;;;;;;;;0.37;66.00;101476.28;5051378;28;834;-59
2022/03/14 05:42:23;;;;;;;;;;;;;;;0.39;65.27;101476.78;5052712;28;944;-59
2022/03/14 05:44:50;;;;;;;;;;;;;;;0.41;65.53;101482.75;5052750;28;867;-60
2022/03/14 05:47:16;;;;;;;;;;;;;;;0.43;66.16;101491.44;5052715;28;1008;-59
2022/03/14 05:49:43;;;;;;;;;;;;;;;0.45;65.52;101488.41;5052738;28;863;-60
2022/03/14 05:52:09;;;;;;;;;;;;;;;0.46;65.48;101490.03;5052970;28;815;-59
2022/03/14 05:54:36;;;;;;;;;;;;;;;0.49;65.04;101486.72;5052472;28;880;-59
2022/03/14 05:57:03;;;;;;;;;;;;;;;0.51;65.10;101496.22;5052375;28;1890;-59
2022/03/14 05:59:30;;;;;;;;;;;;;;;0.53;65.18;101494.00;5052401;28;925;-59
2022/03/14 06:01:57;;;;;;;;;;;;;;;0.55;65.17;101490.97;5052520;28;847;-59
2022/03/14 06:04:23;;;;;;;;;;;;;;;0.57;65.14;101503.19;5052263;28;847;-59
2022/03/14 06:06:49;;;;;;;;;;;;;;;0.60;64.98;101507.25;5052201;28;882;-59
2022/03/14 06:09:17;;;;;;;;;;;;;;;0.63;65.25;101505.84;5052070;28;922;-59
2022/03/14 06:11:44;;;;;;;;;;;;;;;0.67;65.17;101506.88;5052072;28;854;-59
2022/03/14 06:14:11;;;;;;;;;;;;;;;0.69;65.05;101508.22;5052080;28;958;-59
2022/03/14 06:16:38;;;;;;;;;;;;;;;0.76;65.49;101507.84;5051924;28;2070;-59
2022/03/14 06:19:04;;;;;;;;;;;;;;;0.81;65.31;101508.59;5052259;28;889;-59
2022/03/14 06:21:30;;;;;;;;;;;;;;;0.87;64.54;101513.94;5051979;28;831;-59
2022/03/14 06:23:56;;;;;;;;;;;;;;;0.93;64.53;101510.84;5051821;28;859;-59
2022/03/14 06:26:23;;;;;;;;;;;;;;;0.97;65.18;101517.31;5051854;28;854;-59
2022/03/14 06:28:50;;;;;;;;;;;;;;;1.06;64.99;101519.38;5052116;28;850;-59
2022/03/14 06:31:16;;;;;;;;;;;;;;;1.17;64.55;101524.38;5051736;28;929;-59
2022/03/14 06:33:43;;;;;;;;;;;;;;;1.30;64.23;101521.97;5051503;28;1235;-59
2022/03/14 06:36:09;;;;;;;;;;;;;;;1.33;63.85;101527.66;5051694;28;1975;-59
2022/03/14 06:38:36;;;;;;;;;;;;;;;1.34;62.97;101534.69;5051567;28;976;-59
2022/03/14 06:41:03;;;;;;;;;;;;;;;1.43;63.38;101532.94;5051649;28;898;-59
2022/03/14 06:43:32;;;;;;;;;;;;;;;1.55;63.38;101532.44;5051572;28;811;-59
2022/03/14 06:45:59;;;;;;;;;;;;;;;1.63;62.41;101530.97;5051529;28;902;-59
2022/03/14 06:48:25;;;;;;;;;;;;;;;1.63;62.11;101530.97;5051427;28;851;-59
2022/03/14 06:50:52;;;;;;;;;;;;;;;1.65;61.81;101539.66;5051524;28;795;-59
2022/03/14 06:53:18;;;;;;;;;;;;;;;1.84;62.22;101534.13;5051723;28;823;-59
2022/03/14 06:55:44;;;;;;;;;;;;;;;2.00;61.60;101549.06;5051360;28;848;-59
2022/03/14 06:58:11;;;;;;;;;;;;;;;2.10;59.91;101539.09;5051320;28;1890;-59
2022/03/14 07:00:38;;;;;;;;;;;;;;;2.24;59.71;101542.63;5051368;28;988;-59
2022/03/14 07:03:03;;;;;;;;;;;;;;;2.39;58.88;101536.88;5066770;28;918;-59
2022/03/14 07:05:30;;;;;;;;;;;;;;;2.48;59.21;101534.22;5051359;28;956;-59
2022/03/14 07:07:56;;;;;;;;;;;;;;;2.49;58.21;101546.75;5051279;28;881;-59
2022/03/14 07:10:23;;;;;;;;;;;;;;;2.53;58.08;101542.31;5051261;28;918;-60
2022/03/14 07:12:50;;;;;;;;;;;;;;;2.55;57.52;101536.53;5050013;28;1472;-59
2022/03/14 07:15:20;;;;;;;;;;;;;;;2.66;57.37;101544.19;5051323;28;930;-59
2022/03/14 07:17:47;;;;;;;;;;;;;;;2.85;56.81;101548.72;5051392;28;1886;-59
2022/03/14 07:20:14;;;;;;;;;;;;;;;3.00;56.12;101556.56;5051492;28;877;-59
2022/03/14 07:22:58;;;;;;;;;;;;;;;3.00;55.91;101553.81;5051159;28;909;-60
2022/03/14 07:25:26;;;;;;;;;;;;;;;3.09;56.64;101548.44;5051171;28;914;-60
2022/03/14 07:27:54;;;;;;;;;;;;;;;3.50;55.98;101560.31;5051183;28;931;-60
2022/03/14 07:30:21;;;;;;;;;;;;;;;3.99;54.33;101563.97;5051095;28;934;-60
2022/03/14 07:32:48;;;;;;;;;;;;;;;3.82;54.34;101572.88;5050778;28;1467;-60
2022/03/14 07:35:15;;;;;;;;;;;;;;;3.92;54.89;101580.03;5049882;28;1583;-60
2022/03/14 07:37:41;;;;;;;;;;;;;;;4.03;53.83;101584.94;5051009;28;1977;-60
2022/03/14 07:40:09;;;;;;;;;;;;;;;3.87;53.62;101580.97;5051003;28;866;-60
2022/03/14 07:42:43;;;;;;;;;;;;;;;3.80;54.34;101581.41;5051059;28;854;-59
2022/03/14 07:45:12;;;;;;;;;;;;;;;3.98;53.90;101592.44;5050969;28;869;-59
2022/03/14 07:47:39;;;;;;;;;;;;;;;4.12;53.87;101586.88;5049756;28;677;-59
2022/03/14 07:50:07;;;;;;;;;;;;;;;4.26;53.13;101591.13;5050964;28;879;-59
2022/03/14 07:52:34;;;;;;;;;;;;;;;4.45;52.87;101592.81;5051127;28;915;-59
2022/03/14 07:55:00;;;;;;;;;;;;;;;4.68;51.41;101599.81;5051417;28;858;-59
2022/03/14 07:57:27;;;;;;;;;;;;;;;4.60;51.65;101597.03;5052847;28;1977;-59
2022/03/14 07:59:54;;;;;;;;;;;;;;;4.53;51.62;101605.72;5054990;28;894;-58
2022/03/14 08:02:20;;;;;;;;;;;;;;;4.50;50.90;101587.19;5054606;28;878;-58
2022/03/14 08:04:46;;;;;;;;;;;;;;;4.67;51.46;101591.91;5054496;28;921;-58
2022/03/14 08:07:13;;;;;;;;;;;;;;;4.95;50.50;101599.84;5054367;28;854;-58
2022/03/14 08:09:40;;;;;;;;;;;;;;;5.25;49.48;101590.69;5054407;28;965;-58
2022/03/14 08:12:07;;;;;;;;;;;;;;;5.76;47.05;101596.47;5054435;28;827;-59
2022/03/14 08:14:34;;;;;;;;;;;;;;;6.23;47.17;101602.00;5054327;28;1018;-58
2022/03/14 08:17:00;;;;;;;;;;;;;;;6.31;46.88;101601.13;5054278;28;1893;-59
2022/03/14 08:19:26;;;;;;;;;;;;;;;6.62;45.15;101580.00;5054285;28;811;-59
2022/03/14 08:21:53;;;;;;;;;;;;;;;7.03;43.66;101598.47;5054176;28;819;-60
2022/03/14 08:24:20;;;;;;;;;;;;;;;6.67;45.34;101594.34;5054105;28;933;-59
2022/03/14 08:26:46;;;;;;;;;;;;;;;5.95;46.24;101604.31;5054108;28;843;-59
2022/03/14 08:29:13;;;;;;;;;;;;;;;5.57;46.88;101598.72;5054116;28;902;-59
2022/03/14 08:31:40;;;;;;;;;;;;;;;5.47;47.14;101594.41;5053994;28;787;-59
2022/03/14 08:34:07;;;;;;;;;;;;;;;5.60;47.59;101598.09;5053692;28;1226;-59
2022/03/14 08:36:36;;;;;;;;;;;;;;;6.13;45.98;101600.41;5053693;28;1910;-59
2022/03/14 08:39:03;;;;;;;;;;;;;;;6.08;45.94;101619.81;5053741;28;856;-59
2022/03/14 08:41:31;;;;;;;;;;;;;;;6.31;44.74;101603.09;5053818;28;894;-59
2022/03/14 08:43:58;;;;;;;;;;;;;;;6.97;42.88;101612.75;5053798;28;884;-59
2022/03/14 08:46:24;;;;;;;;;;;;;;;7.20;42.69;101616.78;5053736;28;799;-59
2022/03/14 08:48:51;;;;;;;;;;;;;;;6.99;43.39;101615.97;5053640;28;897;-59
2022/03/14 08:51:17;;;;;;;;;;;;;;;6.40;43.82;101614.03;5053667;28;910;-59
2022/03/14 08:53:44;;;;;;;;;;;;;;;6.44;44.40;101615.78;5069045;28;926;-59
2022/03/14 08:56:12;;;;;;;;;;;;;;;7.22;42.24;101616.47;5053493;28;1985;-59
2022/03/14 08:58:39;;;;;;;;;;;;;;;7.22;39.95;101619.22;5053534;28;882;-59
2022/03/14 09:01:09;;;;;;;;;;;;;;;6.91;41.94;101621.22;5053542;28;922;-59
2022/03/14 09:03:35;;;;;;;;;;;;;;;6.98;39.40;101623.44;5053744;28;863;-59
2022/03/14 09:06:03;;;;;;;;;;;;;;;6.90;40.62;101625.09;5053295;28;854;-60
2022/03/14 09:08:29;;;;;;;;;;;;;;;6.83;38.41;101629.47;5052745;28;819;-59
2022/03/14 09:10:56;;;;;;;;;;;;;;;6.56;39.84;101620.59;5053608;28;969;-59
2022/03/14 09:13:23;;;;;;;;;;;;;;;6.20;41.11;101599.91;5053235;28;819;-59
2022/03/14 09:15:50;;;;;;;;;;;;;;;6.49;40.26;101618.38;5053251;28;1007;-59
2022/03/14 09:18:17;;;;;;;;;;;;;;;6.48;37.57;101619.47;5053345;28;1951;-60
2022/03/14 09:20:44;;;;;;;;;;;;;;;6.23;39.78;101606.66;5068578;28;883;-59
2022/03/14 09:23:10;;;;;;;;;;;;;;;6.59;39.06;101617.16;5053027;28;961;-59
2022/03/14 09:25:36;;;;;;;;;;;;;;;6.88;37.09;101626.56;5053058;28;878;-59
2022/03/14 09:28:03;;;;;;;;;;;;;;;7.23;35.68;101624.38;5052979;28;826;-59
2022/03/14 09:30:30;;;;;;;;;;;;;;;7.63;33.13;101620.31;5052985;28;847;-59
2022/03/14 09:32:57;;;;;;;;;;;;;;;7.98;35.64;101613.34;5052612;28;1165;-59
2022/03/14 09:35:24;;;;;;;;;;;;;;;7.94;35.27;101608.84;5052717;28;973;-59
2022/03/14 09:37:51;;;;;;;;;;;;;;;8.05;33.49;101609.22;5051388;28;1971;-59
2022/03/14 09:40:18;;;;;;;;;;;;;;;8.35;32.82;101612.59;5052757;28;873;-59
2022/03/14 09:42:46;;;;;;;;;;;;;;;8.58;31.23;101621.25;5052843;28;803;-59
2022/03/14 09:45:14;;;;;;;;;;;;;;;8.66;32.85;101620.28;5052505;28;914;-59
2022/03/14 09:47:42;;;;;;;;;;;;;;;8.95;33.09;101627.53;5052588;28;894;-59
2022/03/14 09:50:11;;;;;;;;;;;;;;;9.48;31.44;101626.72;5052804;28;777;-59
2022/03/14 09:52:39;;;;;;;;;;;;;;;9.68;32.42;101630.41;5052581;28;930;-59
2022/03/14 09:55:06;;;;;;;;;;;;;;;9.09;33.17;101631.84;5052745;28;879;-59
2022/03/14 09:57:32;;;;;;;;;;;;;;;8.83;37.08;101626.72;5052577;28;1956;-59
2022/03/14 09:59:58;;;;;;;;;;;;;;;8.66;35.38;101630.53;5052410;28;861;-60
2022/03/14 10:02:26;;;;;;;;;;;;;;;7.77;36.21;101631.84;5051281;28;872;-59
2022/03/14 10:04:52;;;;;;;;;;;;;;;7.27;36.54;101630.81;5052427;28;834;-60
2022/03/14 10:07:21;;;;;;;;;;;;;;;7.26;36.47;101636.66;5052597;28;838;-60
2022/03/14 10:09:47;;;;;;;;;;;;;;;7.11;36.76;101629.81;5052185;28;921;-60
2022/03/14 10:12:19;;;;;;;;;;;;;;;7.48;36.32;101633.56;5052233;28;917;-60
2022/03/14 10:14:46;;;;;;;;;;;;;;;8.09;35.13;101629.44;5052047;28;914;-59
2022/03/14 10:17:13;;;;;;;;;;;;;;;7.85;34.33;101622.72;5052075;28;1890;-60
2022/03/14 10:19:39;;;;;;;;;;;;;;;7.83;35.43;101625.00;5051753;28;881;-60
2022/03/14 10:22:15;;;;;;;;;;;;;;;8.42;34.56;101620.31;5052142;28;933;-60
2022/03/14 10:24:44;;;;;;;;;;;;;;;8.14;34.80;101626.44;5050627;28;2145;-60
2022/03/14 10:27:11;;;;;;;;;;;;;;;7.66;35.38;101619.63;5051842;28;890;-60
2022/03/14 10:29:38;;;;;;;;;;;;;;;6.99;36.22;101627.78;5051820;28;1157;-60
2022/03/14 10:32:29;;;;;;;;;;;;;;;6.63;37.35;101626.38;5051761;28;1302;-59
2022/03/14 10:35:01;;;;;;;;;;;;;;;6.49;38.68;101628.56;5051545;28;1342;-60
2022/03/14 10:37:29;;;;;;;;;;;;;;;6.19;39.44;101624.94;5051521;28;1906;-59
2022/03/14 10:39:57;;;;;;;;;;;;;;;5.97;39.48;101626.78;5051629;28;930;-60
2022/03/14 10:42:23;;;;;;;;;;;;;;;6.12;39.24;101622.69;5051624;28;851;-59
2022/03/14 10:44:51;;;;;;;;;;;;;;;6.19;39.06;101617.53;5051546;28;860;-59
2022/03/14 10:47:19;;;;;;;;;;;;;;;6.38;38.73;101610.81;5051647;28;890;-59
2022/03/14 10:49:45;;;;;;;;;;;;;;;6.78;38.75;101621.44;5051595;28;835;-58
2022/03/14 10:52:17;;;;;;;;;;;;;;;6.88;38.16;101607.31;5051546;28;822;-59
2022/03/14 10:54:43;;;;;;;;;;;;;;;6.95;38.70;101619.38;5051485;28;1613;-59
2022/03/14 10:57:11;;;;;;;;;;;;;;;7.00;37.12;101621.16;5051338;28;1943;-59
2022/03/14 10:59:45;;;;;;;;;;;;;;;6.98;37.43;101615.19;5051541;28;890;-59
2022/03/14 11:02:14;;;;;;;;;;;;;;;6.64;39.46;101613.44;5051393;28;851;-59
2022/03/14 11:04:41;;;;;;;;;;;;;;;6.32;39.10;101610.19;5051264;28;909;-59
2022/03/14 11:07:08;;;;;;;;;;;;;;;5.88;40.69;101617.72;5066804;28;901;-59
2022/03/14 11:09:53;;;;;;;;;;;;;;;5.78;41.32;101624.34;5051482;28;799;-59
2022/03/14 11:12:21;;;;;;;;;;;;;;;6.05;40.56;101612.22;5051292;28;886;-59
2022/03/14 11:14:57;;;;;;;;;;;;;;;6.34;40.13;101613.44;5051320;28;966;-59
2022/03/14 11:17:25;;;;;;;;;;;;;;;6.34;39.95;101616.97;5051392;28;1947;-59
2022/03/14 11:19:52;;;;;;;;;;;;;;;6.21;40.45;101611.69;5051284;28;874;-59
2022/03/14 11:22:19;;;;;;;;;;;;;;;5.89;40.39;101603.69;5051350;28;902;-59
2022/03/14 11:24:50;;;;;;;;;;;;;;;5.73;41.96;101617.09;5051191;28;859;-59
2022/03/14 11:27:18;;;;;;;;;;;;;;;5.88;41.50;101604.81;5051140;28;906;-59
2022/03/14 11:29:46;;;;;;;;;;;;;;;6.14;41.74;101606.69;5051194;28;969;-59
2022/03/14 11:32:14;;;;;;;;;;;;;;;6.39;40.09;101607.75;5052710;28;894;-59
2022/03/14 11:34:41;;;;;;;;;;;;;;;6.58;40.38;101612.03;5054657;28;1227;-59
2022/03/14 11:37:08;;;;;;;;;;;;;;;6.24;40.46;101609.09;5054969;28;1934;-59
2022/03/14 11:39:35;;;;;;;;;;;;;;;6.30;40.21;101606.97;5055040;28;1154;-59
2022/03/14 11:42:02;;;;;;;;;;;;;;;6.11;41.31;101599.13;5055026;28;867;-59
2022/03/14 11:44:28;;;;;;;;;;;;;;;6.00;40.60;101600.63;5054950;28;946;-59
2022/03/14 11:46:55;;;;;;;;;;;;;;;6.11;40.98;101596.38;5054919;28;860;-59
2022/03/14 11:49:24;;;;;;;;;;;;;;;6.13;40.85;101596.88;5054810;28;925;-59
2022/03/14 11:51:50;;;;;;;;;;;;;;;5.98;41.49;101594.66;5054771;28;871;-59
2022/03/14 11:54:17;;;;;;;;;;;;;;;5.71;42.44;101594.66;5054610;28;953;-59
2022/03/14 11:56:53;;;;;;;;;;;;;;;5.68;42.82;101589.84;5053448;28;1945;-59
2022/03/14 11:59:31;;;;;;;;;;;;;;;5.76;42.82;101590.97;5054655;28;909;-59
2022/03/14 12:02:00;;;;;;;;;;;;;;;5.60;43.52;101590.66;5054546;28;910;-59
2022/03/14 12:04:36;;;;;;;;;;;;;;;5.88;43.88;101590.28;5054411;28;922;-59
2022/03/14 12:07:05;;;;;;;;;;;;;;;5.98;42.91;101583.69;5054478;28;850;-59
2022/03/14 12:09:34;;;;;;;;;;;;;;;5.96;42.97;101580.47;5054448;28;929;-59
2022/03/14 12:12:12;;;;;;;;;;;;;;;6.21;42.98;101590.53;5054512;28;869;-59
2022/03/14 12:14:42;;;;;;;;;;;;;;;6.28;42.80;101585.34;5054406;28;866;-59
2022/03/14 12:17:15;;;;;;;;;;;;;;;6.19;43.12;101586.50;5054885;28;1885;-59
2022/03/14 12:19:45;;;;;;;;;;;;;;;6.24;42.89;101589.06;5054248;28;843;-59
2022/03/14 12:22:16;;;;;;;;;;;;;;;6.00;42.67;101590.44;5054204;28;990;-59
2022/03/14 12:24:48;;;;;;;;;;;;;;;5.84;43.21;101590.13;5054155;28;854;-59
2022/03/14 12:27:18;;;;;;;;;;;;;;;5.91;43.00;101595.94;5054140;28;913;-59
2022/03/14 12:29:46;;;;;;;;;;;;;;;5.85;43.12;101591.75;5053269;28;865;-59
2022/03/14 12:32:42;;;;;;;;;;;;;;;5.83;43.93;101588.53;5054168;28;855;-59
2022/03/14 12:35:26;;;;;;;;;;;;;;;6.02;42.83;101590.94;5053164;28;1902;-59
2022/03/14 12:37:53;;;;;;;;;;;;;;;6.19;42.78;101594.72;5053807;28;1906;-59
2022/03/14 12:40:19;;;;;;;;;;;;;;;6.28;42.25;101601.00;5053895;28;1056;-59
2022/03/14 12:42:50;;;;;;;;;;;;;;;6.10;41.73;101597.50;5053777;28;851;-59
2022/03/14 12:45:26;;;;;;;;;;;;;;;6.11;42.38;101604.63;5054047;28;854;-59
2022/03/14 12:47:59;;;;;;;;;;;;;;;6.08;40.94;101600.59;5053833;28;902;-59
2022/03/14 12:50:43;;;;;;;;;;;;;;;6.10;41.11;101598.34;5053923;28;928;-59
2022/03/14 12:53:10;;;;;;;;;;;;;;;6.21;40.95;101601.53;5053612;28;894;-59
2022/03/14 12:55:42;;;;;;;;;;;;;;;6.32;41.63;101597.28;5053566;28;875;-59
2022/03/14 12:58:09;;;;;;;;;;;;;;;6.12;40.89;101597.97;5053586;28;1886;-59
2022/03/14 13:00:38;;;;;;;;;;;;;;;5.93;41.22;101603.81;5053519;28;854;-59
2022/03/14 13:03:06;;;;;;;;;;;;;;;5.89;41.60;101600.94;5053417;28;874;-59